createdAt,value
2019-05-26T00:00:24.098Z,100330.98
2019-05-26T00:02:57.512Z,100333.19
2019-05-26T00:05:30.918Z,100331.02
2019-05-26T00:08:02.643Z,100337.72
2019-05-26T00:10:34.381Z,100342.48
2019-05-26T00:13:07.749Z,100342.10
2019-05-26T00:15:42.606Z,100343.56
2019-05-26T00:18:14.301Z,100349.16
2019-05-26T00:20:46.435Z,100353.19
2019-05-26T00:23:18.149Z,100354.39
2019-05-26T00:25:51.090Z,100353.69
2019-05-26T00:28:22.832Z,100347.36
2019-05-26T00:30:54.906Z,100342.86
2019-05-26T00:33:28.362Z,100341.89
2019-05-26T00:36:00.158Z,100339.81
2019-05-26T00:38:32.138Z,100337.98
2019-05-26T00:41:03.856Z,100339.22
2019-05-26T00:43:36.090Z,100340.55
2019-05-26T00:46:07.845Z,100340.17
2019-05-26T00:48:40.625Z,100331.89
2019-05-26T00:51:14.043Z,100335.42
2019-05-26T00:53:45.869Z,100331.80
2019-05-26T00:56:18.773Z,100326.55
2019-05-26T00:58:50.545Z,100336.66
2019-05-26T01:01:22.279Z,100333.48
2019-05-26T01:03:54.006Z,100333.00
2019-05-26T01:06:27.427Z,100328.39
2019-05-26T01:08:59.171Z,100328.16
2019-05-26T01:11:34.087Z,100326.09
2019-05-26T01:14:05.930Z,100325.11
2019-05-26T01:16:38.141Z,100320.88
2019-05-26T01:19:09.907Z,100314.57
2019-05-26T01:21:42.080Z,100319.46
2019-05-26T01:24:15.482Z,100309.62
2019-05-26T01:26:47.537Z,100318.80
2019-05-26T01:29:19.369Z,100325.64
2019-05-26T01:31:54.206Z,100327.73
2019-05-26T01:34:27.609Z,100330.10
2019-05-26T01:36:59.812Z,100336.39
2019-05-26T01:39:31.594Z,100339.23
2019-05-26T01:42:04.967Z,100353.53
2019-05-26T01:44:36.853Z,100353.92
2019-05-26T01:47:08.610Z,100357.70
2019-05-26T01:49:40.323Z,100361.25
2019-05-26T01:52:12.136Z,100356.55
2019-05-26T01:54:44.064Z,100360.20
2019-05-26T01:57:15.824Z,100363.23
2019-05-26T01:59:49.205Z,100363.74
2019-05-26T02:02:23.780Z,100361.09
2019-05-26T02:04:55.593Z,100363.88
2019-05-26T02:07:27.396Z,100361.48
2019-05-26T02:10:01.204Z,100356.48
2019-05-26T02:12:33.337Z,100359.09
2019-05-26T02:15:05.826Z,100357.23
2019-05-26T02:17:37.548Z,100359.36
2019-05-26T02:20:09.837Z,100355.95
2019-05-26T02:22:43.271Z,100356.70
2019-05-26T02:25:15.070Z,100359.50
2019-05-26T02:27:46.793Z,100355.34
2019-05-26T02:30:18.991Z,100358.36
2019-05-26T02:32:51.058Z,100351.27
2019-05-26T02:35:22.855Z,100356.56
2019-05-26T02:37:54.686Z,100355.75
2019-05-26T02:40:28.066Z,100354.20
2019-05-26T02:43:00.948Z,100355.50
2019-05-26T02:45:32.741Z,100358.25
2019-05-26T02:48:04.446Z,100353.62
2019-05-26T02:50:36.245Z,100361.30
2019-05-26T02:53:08.037Z,100357.86
2019-05-26T02:55:40.000Z,100363.70
2019-05-26T02:58:11.873Z,100357.75
2019-05-26T03:00:44.747Z,100349.83
2019-05-26T03:03:17.123Z,100355.23
2019-05-26T03:05:48.879Z,100353.84
2019-05-26T03:08:20.739Z,100360.55
2019-05-26T03:10:52.555Z,100360.73
2019-05-26T03:13:25.955Z,100362.17
2019-05-26T03:15:59.576Z,100355.13
2019-05-26T03:18:32.052Z,100351.41
2019-05-26T03:21:05.013Z,100359.44
2019-05-26T03:23:36.735Z,100358.15
2019-05-26T03:26:08.497Z,100356.78
2019-05-26T03:28:40.447Z,100356.44
2019-05-26T03:31:15.008Z,100359.58
2019-05-26T03:33:46.861Z,100359.00
2019-05-26T03:36:18.640Z,100356.57
2019-05-26T03:38:50.435Z,100354.96
2019-05-26T03:41:22.587Z,100356.57
2019-05-26T03:43:55.812Z,100356.57
2019-05-26T03:46:28.489Z,100358.02
2019-05-26T03:49:02.380Z,100360.72
2019-05-26T03:51:35.724Z,100363.41
2019-05-26T03:54:09.642Z,100361.83
2019-05-26T03:56:41.437Z,100359.08
2019-05-26T03:59:13.231Z,100363.85
2019-05-26T04:01:44.947Z,100358.08
2019-05-26T04:04:16.705Z,100354.84
2019-05-26T04:06:48.831Z,100352.41
2019-05-26T04:09:21.100Z,100357.36
2019-05-26T04:11:54.452Z,100361.78
2019-05-26T04:14:27.933Z,100360.83
2019-05-26T04:17:01.000Z,100356.19
2019-05-26T04:19:32.721Z,100362.27
2019-05-26T04:22:05.868Z,100367.42
2019-05-26T04:24:39.242Z,100367.78
2019-05-26T04:27:11.013Z,100364.95
2019-05-26T04:29:43.191Z,100365.70
2019-05-26T04:32:15.074Z,100366.92
2019-05-26T04:34:48.564Z,100364.95
2019-05-26T04:37:20.382Z,100372.17
2019-05-26T04:39:52.136Z,100377.78
2019-05-26T04:42:24.589Z,100383.55
2019-05-26T04:44:58.125Z,100387.25
2019-05-26T04:47:32.470Z,100388.50
2019-05-26T04:50:04.289Z,100387.82
2019-05-26T04:52:36.159Z,100381.47
2019-05-26T04:55:07.967Z,100377.66
2019-05-26T04:57:40.026Z,100380.20
2019-05-26T05:00:11.771Z,100382.21
2019-05-26T05:02:43.495Z,100381.06
2019-05-26T05:05:15.513Z,100392.45
2019-05-26T05:07:47.406Z,100390.55
2019-05-26T05:10:19.181Z,100387.52
2019-05-26T05:12:50.913Z,100395.09
2019-05-26T05:15:22.678Z,100393.88
2019-05-26T05:17:54.471Z,100400.72
2019-05-26T05:20:26.182Z,100403.77
2019-05-26T05:22:57.974Z,100402.73
2019-05-26T05:25:31.324Z,100402.80
2019-05-26T05:28:04.671Z,100410.31
2019-05-26T05:30:36.589Z,100408.22
2019-05-26T05:33:08.388Z,100403.58
2019-05-26T05:35:41.393Z,100409.66
2019-05-26T05:38:13.451Z,100411.75
2019-05-26T05:40:58.766Z,100414.23
2019-05-26T05:43:19.275Z,100420.41
2019-05-26T05:45:51.063Z,100425.83
2019-05-26T05:48:22.904Z,100428.49
2019-05-26T05:50:54.609Z,100435.78
2019-05-26T05:53:26.402Z,100440.73
2019-05-26T05:56:00.434Z,100437.58
2019-05-26T05:58:32.259Z,100443.52
2019-05-26T06:01:04.033Z,100438.66
2019-05-26T06:03:37.396Z,100437.08
2019-05-26T06:06:10.845Z,100434.27
2019-05-26T06:08:42.959Z,100432.48
2019-05-26T06:11:17.428Z,100429.63
2019-05-26T06:13:49.194Z,100427.11
2019-05-26T06:16:20.989Z,100441.30
2019-05-26T06:18:52.683Z,100438.77
2019-05-26T06:21:25.154Z,100448.86
2019-05-26T06:23:56.925Z,100447.59
2019-05-26T06:26:28.702Z,100450.77
2019-05-26T06:29:01.222Z,100452.08
2019-05-26T06:31:36.139Z,100445.88
2019-05-26T06:34:07.909Z,100443.95
2019-05-26T06:36:41.235Z,100449.54
2019-05-26T06:39:14.916Z,100440.50
2019-05-26T06:41:48.877Z,100438.30
2019-05-26T06:44:20.628Z,100432.31
2019-05-26T06:46:52.933Z,100435.84
2019-05-26T06:49:24.646Z,100436.38
2019-05-26T06:51:58.110Z,100440.52
2019-05-26T06:54:29.837Z,100444.59
2019-05-26T06:57:02.313Z,100433.95
2019-05-26T06:59:35.221Z,100437.30
2019-05-26T07:02:09.899Z,100437.88
2019-05-26T07:04:41.647Z,100429.09
2019-05-26T07:07:13.718Z,100432.30
2019-05-26T07:09:45.613Z,100430.17
2019-05-26T07:12:17.351Z,100435.62
2019-05-26T07:14:50.691Z,100430.80
2019-05-26T07:17:22.579Z,100429.22
2019-05-26T07:19:55.449Z,100427.73
2019-05-26T07:22:27.259Z,100433.83
2019-05-26T07:24:59.363Z,100426.69
2019-05-26T07:27:31.109Z,100424.56
2019-05-26T07:30:02.883Z,100422.40
2019-05-26T07:32:36.335Z,100428.09
2019-05-26T07:35:08.326Z,100421.73
2019-05-26T07:37:41.689Z,100412.55
2019-05-26T07:40:16.350Z,100422.27
2019-05-26T07:42:49.155Z,100415.88
2019-05-26T07:45:21.057Z,100428.63
2019-05-26T07:47:52.814Z,100424.44
2019-05-26T07:50:24.567Z,100417.53
2019-05-26T07:52:56.290Z,100414.62
2019-05-26T07:55:28.028Z,100417.06
2019-05-26T07:57:59.814Z,100415.70
2019-05-26T08:00:33.205Z,100415.06
2019-05-26T08:03:04.976Z,100416.45
2019-05-26T08:05:36.661Z,100416.94
2019-05-26T08:08:12.974Z,100411.71
2019-05-26T08:10:43.963Z,100413.41
2019-05-26T08:13:15.741Z,100411.19
2019-05-26T08:15:47.482Z,100409.49
2019-05-26T08:18:20.492Z,100406.96
2019-05-26T08:21:20.654Z,100403.77
2019-05-26T08:24:05.679Z,100404.62
2019-05-26T08:26:37.796Z,100401.92
2019-05-26T08:29:11.197Z,100405.14
2019-05-26T08:31:42.932Z,100406.39
2019-05-26T08:34:14.651Z,100405.06
2019-05-26T08:36:46.373Z,100407.77
2019-05-26T08:39:18.081Z,100416.86
2019-05-26T08:41:50.317Z,100410.22
2019-05-26T08:44:23.919Z,100410.42
2019-05-26T08:46:55.656Z,100408.09
2019-05-26T08:49:27.411Z,100407.25
2019-05-26T08:51:59.219Z,100403.47
2019-05-26T08:54:32.567Z,100410.16
2019-05-26T08:57:05.769Z,100397.61
2019-05-26T08:59:37.506Z,100411.22
2019-05-26T09:02:09.216Z,100402.02
2019-05-26T09:04:40.974Z,100399.09
2019-05-26T09:07:14.323Z,100402.51
2019-05-26T09:09:46.110Z,100405.17
2019-05-26T09:12:19.432Z,100397.91
2019-05-26T09:14:52.086Z,100392.66
2019-05-26T09:17:23.886Z,100387.41
2019-05-26T09:19:56.309Z,100389.81
2019-05-26T09:22:28.000Z,100386.55
2019-05-26T09:24:59.726Z,100384.89
2019-05-26T09:27:31.616Z,100380.92
2019-05-26T09:30:05.280Z,100377.47
2019-05-26T09:32:40.028Z,100378.23
2019-05-26T09:35:11.774Z,100379.84
2019-05-26T09:37:45.380Z,100382.19
2019-05-26T09:40:17.588Z,100392.42
2019-05-26T09:42:49.382Z,100386.48
2019-05-26T09:45:21.244Z,100380.28
2019-05-26T09:47:55.938Z,100381.41
2019-05-26T09:50:27.872Z,100384.78
2019-05-26T09:52:59.655Z,100378.10
2019-05-26T09:55:31.539Z,100379.16
2019-05-26T09:58:06.480Z,100382.87
2019-05-26T10:00:38.967Z,100379.30
2019-05-26T10:03:11.205Z,100368.27
2019-05-26T10:05:45.936Z,100369.90
2019-05-26T10:08:17.753Z,100367.03
2019-05-26T10:10:50.426Z,100365.27
2019-05-26T10:13:31.357Z,100364.91
2019-05-26T10:15:57.255Z,100361.36
2019-05-26T10:18:28.968Z,100358.52
2019-05-26T10:21:00.736Z,100360.59
2019-05-26T10:23:34.073Z,100357.94
2019-05-26T10:26:05.798Z,100364.22
2019-05-26T10:28:39.291Z,100357.88
2019-05-26T10:31:11.069Z,100352.44
2019-05-26T10:33:42.751Z,100353.71
2019-05-26T10:36:14.679Z,100357.75
2019-05-26T10:38:48.110Z,100357.55
2019-05-26T10:41:20.579Z,100356.03
2019-05-26T10:43:53.709Z,100354.86
2019-05-26T10:46:25.438Z,100349.31
2019-05-26T10:48:57.240Z,100352.93
2019-05-26T10:51:28.963Z,100352.25
2019-05-26T10:54:00.698Z,100346.65
2019-05-26T10:56:32.767Z,100344.23
2019-05-26T10:59:04.536Z,100332.70
2019-05-26T11:01:37.953Z,100335.94
2019-05-26T11:04:09.725Z,100332.84
2019-05-26T11:06:41.489Z,100329.75
2019-05-26T11:09:13.406Z,100321.00
2019-05-26T11:11:45.205Z,100325.22
2019-05-26T11:14:16.940Z,100325.32
2019-05-26T11:16:48.642Z,100324.91
2019-05-26T11:19:21.427Z,100323.27
2019-05-26T11:21:53.531Z,100318.77
2019-05-26T11:24:26.920Z,100312.52
2019-05-26T11:27:08.357Z,100324.12
2019-05-26T11:29:32.127Z,100312.98
2019-05-26T11:32:03.847Z,100309.84
2019-05-26T11:34:35.629Z,100309.25
2019-05-26T11:37:09.034Z,100310.37
2019-05-26T11:39:40.720Z,100308.13
2019-05-26T11:42:14.025Z,100297.22
2019-05-26T11:44:46.247Z,100300.71
2019-05-26T11:47:19.290Z,100294.79
2019-05-26T11:49:53.012Z,100289.52
2019-05-26T11:52:24.690Z,100279.98
2019-05-26T11:54:56.422Z,100265.50
2019-05-26T11:57:28.151Z,100262.41
2019-05-26T11:59:59.883Z,100263.27
2019-05-26T12:02:31.628Z,100259.67
2019-05-26T12:05:05.505Z,100258.52
2019-05-26T12:07:37.202Z,100246.40
2019-05-26T12:10:13.914Z,100254.81
2019-05-26T12:12:43.944Z,100242.85
2019-05-26T12:15:15.660Z,100245.01
2019-05-26T12:17:47.440Z,100243.94
2019-05-26T12:20:21.710Z,100245.95
2019-05-26T12:22:53.445Z,100240.91
2019-05-26T12:25:25.143Z,100233.91
2019-05-26T12:27:56.959Z,100236.45
2019-05-26T12:30:28.705Z,100232.49
2019-05-26T12:33:02.050Z,100228.89
2019-05-26T12:35:45.460Z,100228.77
2019-05-26T12:38:18.166Z,100227.73
2019-05-26T12:40:50.835Z,100217.78
2019-05-26T12:43:22.529Z,100215.73
2019-05-26T12:45:54.302Z,100215.05
2019-05-26T12:48:26.080Z,100205.49
2019-05-26T12:50:59.408Z,100204.86
2019-05-26T12:53:31.486Z,100203.13
2019-05-26T12:56:03.218Z,100194.51
2019-05-26T12:58:36.606Z,100194.83
2019-05-26T13:01:08.318Z,100199.55
2019-05-26T13:03:40.073Z,100197.11
2019-05-26T13:06:11.782Z,100194.50
2019-05-26T13:08:46.339Z,100190.30
2019-05-26T13:11:18.091Z,100179.05
2019-05-26T13:13:51.444Z,100177.91
2019-05-26T13:16:24.828Z,100189.86
2019-05-26T13:18:56.575Z,100186.70
2019-05-26T13:21:28.319Z,100184.09
2019-05-26T13:24:01.984Z,100181.44
2019-05-26T13:26:36.122Z,100184.92
2019-05-26T13:29:08.196Z,100171.38
2019-05-26T13:31:39.998Z,100177.26
2019-05-26T13:34:12.956Z,100173.22
2019-05-26T13:36:45.805Z,100166.23
2019-05-26T13:39:17.599Z,100162.47
2019-05-26T13:41:49.584Z,100165.06
2019-05-26T13:44:22.666Z,100155.91
2019-05-26T13:46:54.428Z,100153.58
2019-05-26T13:49:26.195Z,100155.34
2019-05-26T13:51:57.905Z,100151.28
2019-05-26T13:54:29.626Z,100141.70
2019-05-26T13:57:03.658Z,100149.05
2019-05-26T13:59:35.392Z,100149.20
2019-05-26T14:02:07.846Z,100146.47
2019-05-26T14:04:41.237Z,100144.06
2019-05-26T14:07:12.950Z,100146.41
2019-05-26T14:09:45.063Z,100148.45
2019-05-26T14:12:16.824Z,100148.26
2019-05-26T14:14:48.541Z,100152.59
2019-05-26T14:17:20.315Z,100144.00
2019-05-26T14:19:52.041Z,100143.17
2019-05-26T14:22:23.746Z,100145.09
2019-05-26T14:24:55.477Z,100132.69
2019-05-26T14:27:27.316Z,100141.66
2019-05-26T14:30:03.523Z,100140.31
2019-05-26T14:32:35.237Z,100138.14
2019-05-26T14:35:08.789Z,100131.32
2019-05-26T14:37:40.672Z,100135.56
2019-05-26T14:40:12.454Z,100126.64
2019-05-26T14:42:44.297Z,100122.67
2019-05-26T14:45:16.081Z,100118.60
2019-05-26T14:47:49.505Z,100122.67
2019-05-26T14:50:21.525Z,100114.89
2019-05-26T14:52:53.254Z,100111.70
2019-05-26T14:55:25.997Z,100116.62
2019-05-26T14:58:14.186Z,100108.70
2019-05-26T15:00:32.096Z,100108.22
2019-05-26T15:03:03.860Z,100098.56
2019-05-26T15:05:37.257Z,100097.48
2019-05-26T15:08:08.962Z,100094.86
2019-05-26T15:10:40.720Z,100092.22
2019-05-26T15:13:14.082Z,100092.02
2019-05-26T15:15:47.177Z,100088.28
2019-05-26T15:18:20.376Z,100088.28
2019-05-26T15:20:55.904Z,100087.36
2019-05-26T15:23:25.885Z,100087.92
2019-05-26T15:25:58.080Z,100089.67
2019-05-26T15:28:29.873Z,100082.87
2019-05-26T15:31:03.265Z,100072.64
2019-05-26T15:33:36.536Z,100078.70
2019-05-26T15:36:12.449Z,100081.85
2019-05-26T15:38:46.336Z,100076.50
2019-05-26T15:41:18.145Z,100069.58
2019-05-26T15:43:49.865Z,100072.31
2019-05-26T15:46:25.434Z,100076.08
2019-05-26T15:48:56.012Z,100071.68
2019-05-26T15:51:27.782Z,100065.59
2019-05-26T15:54:03.498Z,100065.14
2019-05-26T15:56:35.805Z,100065.59
2019-05-26T15:59:11.517Z,100063.17
2019-05-26T16:01:47.923Z,100056.44
2019-05-26T16:04:19.679Z,100060.21
2019-05-26T16:06:51.463Z,100056.25
2019-05-26T16:09:25.008Z,100061.72
2019-05-26T16:11:59.703Z,100060.91
2019-05-26T16:14:33.136Z,100061.32
2019-05-26T16:17:07.904Z,100054.90
2019-05-26T16:19:39.995Z,100052.16
2019-05-26T16:22:13.482Z,100050.67
2019-05-26T16:24:45.305Z,100052.05
2019-05-26T16:27:19.610Z,100039.03
2019-05-26T16:29:50.603Z,100042.50
2019-05-26T16:32:24.702Z,100045.50
2019-05-26T16:34:56.529Z,100050.04
2019-05-26T16:37:30.012Z,100044.39
2019-05-26T16:40:01.809Z,100046.94
2019-05-26T16:42:36.303Z,100045.48
2019-05-26T16:45:09.725Z,100047.30
2019-05-26T16:47:41.636Z,100043.00
2019-05-26T16:50:13.480Z,100047.75
2019-05-26T16:52:45.250Z,100037.25
2019-05-26T16:55:17.106Z,100033.37
2019-05-26T16:57:48.971Z,100044.14
2019-05-26T17:00:20.839Z,100038.89
2019-05-26T17:02:54.269Z,100034.87
2019-05-26T17:05:26.539Z,100030.48
2019-05-26T17:07:59.491Z,100035.84
2019-05-26T17:10:31.643Z,100035.54
2019-05-26T17:13:05.646Z,100035.88
2019-05-26T17:15:38.160Z,100033.89
2019-05-26T17:18:09.994Z,100034.10
2019-05-26T17:20:42.578Z,100034.14
2019-05-26T17:23:15.695Z,100038.74
2019-05-26T17:25:48.964Z,100043.55
2019-05-26T17:28:20.978Z,100035.00
2019-05-26T17:30:52.865Z,100036.48
2019-05-26T17:33:24.786Z,100031.97
2019-05-26T17:35:58.354Z,100033.45
2019-05-26T17:38:32.922Z,100039.62
2019-05-26T17:41:04.932Z,100034.40
2019-05-26T17:43:37.280Z,100040.27
2019-05-26T17:46:09.617Z,100034.20
2019-05-26T17:48:42.617Z,100044.90
2019-05-26T17:51:15.832Z,100029.47
2019-05-26T17:53:49.808Z,100035.73
2019-05-26T17:56:22.598Z,100033.28
2019-05-26T17:58:56.029Z,100032.06
2019-05-26T18:01:29.386Z,100033.35
2019-05-26T18:04:02.402Z,100028.29
2019-05-26T18:06:35.141Z,100033.15
2019-05-26T18:09:08.537Z,100038.00
2019-05-26T18:11:42.089Z,100034.00
2019-05-26T18:14:15.857Z,100033.35
2019-05-26T18:16:47.621Z,100035.66
2019-05-26T18:19:19.362Z,100034.74
2019-05-26T18:21:51.135Z,100032.56
2019-05-26T18:24:22.931Z,100040.24
2019-05-26T18:26:54.687Z,100031.07
2019-05-26T18:29:26.471Z,100029.53
2019-05-26T18:32:00.431Z,100033.30
2019-05-26T18:34:34.919Z,100033.53
2019-05-26T18:37:07.122Z,100041.80
2019-05-26T18:39:41.885Z,100043.41
2019-05-26T18:42:13.605Z,100032.36
2019-05-26T18:44:46.420Z,100029.78
2019-05-26T18:47:18.183Z,100037.84
2019-05-26T18:49:50.428Z,100042.66
2019-05-26T18:52:22.198Z,100045.78
2019-05-26T18:54:54.112Z,100042.77
2019-05-26T18:57:25.902Z,100053.31
2019-05-26T18:59:58.939Z,100053.61
2019-05-26T19:02:30.980Z,100051.34
2019-05-26T19:05:02.756Z,100056.45
2019-05-26T19:07:35.995Z,100062.20
2019-05-26T19:10:09.826Z,100059.56
2019-05-26T19:12:41.888Z,100056.36
2019-05-26T19:15:15.262Z,100060.47
2019-05-26T19:17:47.256Z,100062.86
2019-05-26T19:20:19.057Z,100063.09
2019-05-26T19:22:53.399Z,100059.95
2019-05-26T19:25:25.367Z,100064.60
2019-05-26T19:27:59.702Z,100058.98
2019-05-26T19:30:31.436Z,100073.07
2019-05-26T19:33:03.154Z,100079.83
2019-05-26T19:35:35.135Z,100080.19
2019-05-26T19:38:06.845Z,100076.66
2019-05-26T19:40:39.368Z,100070.43
2019-05-26T19:43:14.453Z,100076.31
2019-05-26T19:45:46.237Z,100078.34
2019-05-26T19:48:18.399Z,100074.95
2019-05-26T19:50:53.219Z,100081.67
2019-05-26T19:53:25.255Z,100082.64
2019-05-26T19:55:57.087Z,100087.47
2019-05-26T19:58:28.874Z,100087.78
2019-05-26T23:18:47.328Z,100145.90
2019-05-26T23:21:19.367Z,100138.72
2019-05-26T23:23:52.187Z,100128.68
2019-05-26T23:26:24.100Z,100128.16
2019-05-26T23:28:56.606Z,100136.59
2019-05-26T23:31:29.226Z,100137.52
2019-05-26T23:34:03.272Z,100132.41
2019-05-26T23:36:35.577Z,100129.64
2019-05-26T23:39:07.813Z,100130.83
2019-05-26T23:41:43.134Z,100120.27
2019-05-26T23:44:16.041Z,100120.41
2019-05-26T23:46:47.881Z,100117.42
2019-05-26T23:49:19.603Z,100121.78
2019-05-26T23:51:51.618Z,100117.66
2019-05-26T23:54:23.336Z,100116.41
2019-05-26T23:56:55.119Z,100121.69
2019-05-26T23:59:26.879Z,100111.03
